Time;durP1;ratioP1;P1;durP2;ratioP2;P2;SDS_P1;SDS_P2;PMS_P1;PMS_P2;Temp;Humidity;BMP_temperature;BMP_pressure;BME280_temperature;BME280_humidity;BME280_pressure;Samples;Min_cycle;Max_cycle;Signal;HPM_P1;HPM_P2
2023/09/27 00:02:24;;;;;;;26.60;17.80;;;;;;;14.84;87.91;101015.77;130743;1257;107012;-76
2023/09/27 00:05:30;;;;;;;23.20;17.00;;;;;;;14.79;87.96;101019.15;130753;1257;108075;-76
2023/09/27 00:08:36;;;;;;;22.20;17.30;;;;;;;14.76;87.88;101021.06;130762;1253;106452;-76
2023/09/27 00:11:42;;;;;;;21.70;17.00;;;;;;;14.73;87.83;101014.75;130826;1256;106589;-76
2023/09/27 00:14:48;;;;;;;22.30;16.30;;;;;;;14.68;87.65;101014.59;130779;1258;107491;-76
2023/09/27 00:17:54;;;;;;;19.50;15.70;;;;;;;14.62;87.35;101022.16;130744;1252;107323;-76
2023/09/27 00:21:00;;;;;;;21.00;15.60;;;;;;;14.56;87.51;101015.42;130697;1266;108620;-76
2023/09/27 00:24:06;;;;;;;22.00;16.10;;;;;;;14.50;87.55;101019.22;130745;1258;107884;-75
2023/09/27 00:27:12;;;;;;;22.10;16.20;;;;;;;14.47;87.58;101019.04;130787;1258;107490;-76
2023/09/27 00:30:17;;;;;;;21.80;16.30;;;;;;;14.44;87.72;101013.98;130739;1257;106503;-76
2023/09/27 00:33:23;;;;;;;23.70;16.70;;;;;;;14.41;87.54;101015.41;130756;1254;107407;-76
2023/09/27 00:36:29;;;;;;;19.60;16.00;;;;;;;14.36;87.18;101012.66;130712;1258;106864;-76
2023/09/27 00:39:39;;;;;;;16.90;14.10;;;;;;;14.31;87.25;101013.20;130739;1258;108465;-76
2023/09/27 00:42:44;;;;;;;17.40;14.40;;;;;;;14.27;87.20;101008.08;130730;1256;107890;-76
2023/09/27 00:45:51;;;;;;;18.80;15.40;;;;;;;14.25;87.30;101007.40;130757;1266;107673;-76
2023/09/27 00:48:57;;;;;;;20.00;14.80;;;;;;;14.23;87.01;101002.19;130762;1257;108923;-76
2023/09/27 00:52:03;;;;;;;17.50;15.10;;;;;;;14.22;87.01;101000.40;130772;1256;107796;-75
2023/09/27 00:55:11;;;;;;;17.60;14.90;;;;;;;14.19;87.05;101002.63;130770;1266;107389;-76
2023/09/27 00:58:20;;;;;;;19.70;15.60;;;;;;;14.15;86.92;101000.52;130779;1256;107749;-76
2023/09/27 01:01:28;;;;;;;19.30;14.30;;;;;;;14.10;86.93;101000.83;130686;1262;106749;-76
2023/09/27 01:04:34;;;;;;;17.10;13.20;;;;;;;14.07;86.87;100997.42;130718;1266;106519;-76
2023/09/27 01:07:40;;;;;;;19.60;14.90;;;;;;;14.03;87.02;100998.31;130733;1257;107670;-76
2023/09/27 01:10:47;;;;;;;20.10;14.40;;;;;;;14.03;87.27;100999.95;130726;1259;108701;-77
2023/09/27 01:13:53;;;;;;;18.20;14.90;;;;;;;14.04;86.98;100997.53;130798;1253;107430;-76
2023/09/27 01:17:10;;;;;;;20.10;15.50;;;;;;;14.03;87.14;100995.14;130717;1258;106902;-76
2023/09/27 01:20:15;;;;;;;19.30;15.40;;;;;;;13.99;87.00;100995.70;130690;1257;105851;-76
2023/09/27 01:23:21;;;;;;;20.30;15.90;;;;;;;13.96;87.27;100993.35;130740;1258;107680;-75
2023/09/27 01:26:29;;;;;;;18.20;14.20;;;;;;;13.94;87.37;100994.06;130660;1258;107645;-75
2023/09/27 01:29:35;;;;;;;17.10;14.70;;;;;;;13.93;87.00;100990.23;130712;1257;106669;-75
2023/09/27 01:32:41;;;;;;;17.50;15.40;;;;;;;13.92;86.96;100988.70;130717;1258;107955;-75
2023/09/27 01:35:47;;;;;;;18.90;15.40;;;;;;;13.91;86.93;100992.11;130735;1258;107420;-76
2023/09/27 01:38:54;;;;;;;19.00;16.20;;;;;;;13.88;87.13;100986.98;130704;1257;107685;-75
2023/09/27 01:42:00;;;;;;;17.50;14.00;;;;;;;13.84;87.02;100984.08;130690;1266;108397;-75
2023/09/27 01:45:07;;;;;;;16.30;13.70;;;;;;;13.79;86.74;100985.75;130675;1257;108113;-75
2023/09/27 01:48:13;;;;;;;18.20;13.30;;;;;;;13.77;86.75;100983.15;130770;1260;107725;-75
2023/09/27 01:51:19;;;;;;;16.40;13.70;;;;;;;13.74;86.54;100984.24;130517;1266;269674;-75
2023/09/27 01:54:24;;;;;;;19.70;15.20;;;;;;;13.73;86.44;100986.52;130746;1258;108638;-75
2023/09/27 01:57:30;;;;;;;18.10;14.50;;;;;;;13.70;86.43;100988.61;130730;1259;106716;-75
2023/09/27 02:00:37;;;;;;;17.10;13.80;;;;;;;13.66;86.28;100989.02;130674;1254;105741;-75
2023/09/27 02:03:42;;;;;;;16.90;13.50;;;;;;;13.62;86.38;100985.02;130722;1256;107834;-75
2023/09/27 02:06:48;;;;;;;18.40;13.20;;;;;;;13.58;86.25;100980.53;130675;1258;107667;-75
2023/09/27 02:09:54;;;;;;;17.30;12.80;;;;;;;13.57;86.25;100980.48;130678;1257;106568;-75
2023/09/27 02:12:59;;;;;;;15.40;13.50;;;;;;;13.57;86.14;100978.91;130690;1257;106410;-75
2023/09/27 02:16:05;;;;;;;19.30;14.40;;;;;;;13.58;86.14;100977.94;130710;1259;106988;-75
2023/09/27 02:19:11;;;;;;;15.50;13.80;;;;;;;13.56;86.15;100977.86;130703;1266;106503;-75
2023/09/27 02:22:17;;;;;;;16.40;13.70;;;;;;;13.54;86.19;100976.64;130681;1254;107868;-75
2023/09/27 02:25:23;;;;;;;17.80;13.50;;;;;;;13.49;86.11;100976.60;130721;1262;106562;-75
2023/09/27 02:28:28;;;;;;;15.70;12.50;;;;;;;13.44;86.07;100978.92;130697;1262;107530;-75
2023/09/27 02:31:35;;;;;;;17.30;13.70;;;;;;;13.42;85.91;100976.50;130739;1262;107013;-80
2023/09/27 02:34:42;;;;;;;17.00;13.20;;;;;;;13.41;85.74;100983.76;130922;1254;108721;-79
2023/09/27 02:37:49;;;;;;;18.60;14.40;;;;;;;13.40;86.02;100983.95;131015;1254;108734;-78
2023/09/27 02:40:55;;;;;;;21.50;15.30;;;;;;;13.40;86.04;100984.89;130736;1259;106733;-76
2023/09/27 02:44:01;;;;;;;17.10;14.60;;;;;;;13.38;86.15;100987.06;130698;1258;107090;-77
2023/09/27 02:47:07;;;;;;;18.80;15.50;;;;;;;13.34;86.04;100982.98;130840;1257;108224;-75
2023/09/27 02:50:14;;;;;;;22.60;15.90;;;;;;;13.27;86.13;100983.06;130863;1254;107025;-77
2023/09/27 02:53:19;;;;;;;17.60;13.80;;;;;;;13.24;86.01;100983.91;130728;1257;106954;-77
2023/09/27 02:56:25;;;;;;;16.30;13.80;;;;;;;13.22;86.11;100983.97;130692;1266;106774;-76
2023/09/27 02:59:32;;;;;;;19.00;13.90;;;;;;;13.22;85.93;100980.70;130689;1266;106837;-77
2023/09/27 03:02:38;;;;;;;18.90;14.20;;;;;;;13.23;85.76;100983.10;130713;1256;107812;-77
2023/09/27 03:05:44;;;;;;;20.90;16.80;;;;;;;13.24;85.86;100974.86;130674;1254;108421;-77
2023/09/27 03:08:50;;;;;;;20.60;16.40;;;;;;;13.23;85.88;100975.93;130671;1266;107666;-77
2023/09/27 03:11:57;;;;;;;20.90;14.60;;;;;;;13.19;85.87;100977.12;130670;1258;108570;-77
2023/09/27 03:15:03;;;;;;;20.90;13.90;;;;;;;13.16;85.87;100981.63;130685;1267;107921;-77
2023/09/27 03:18:09;;;;;;;19.00;13.70;;;;;;;13.15;85.87;100982.30;130670;1259;106833;-77
2023/09/27 03:21:14;;;;;;;18.40;15.00;;;;;;;13.17;85.93;100984.08;130703;1256;108676;-77
2023/09/27 03:24:20;;;;;;;18.20;15.00;;;;;;;13.19;86.08;100982.32;130664;1266;106508;-78
2023/09/27 03:27:26;;;;;;;19.50;14.80;;;;;;;13.19;85.88;100984.48;130688;1253;106358;-79
2023/09/27 03:30:32;;;;;;;21.30;15.00;;;;;;;13.15;85.73;100980.17;130666;1260;107694;-79
2023/09/27 03:33:37;;;;;;;18.40;14.90;;;;;;;13.11;85.68;100979.10;130723;1257;107777;-79
2023/09/27 03:36:44;;;;;;;18.80;14.40;;;;;;;13.07;85.74;100974.86;130740;1268;109300;-79
2023/09/27 03:39:52;;;;;;;17.40;14.00;;;;;;;13.04;85.56;100973.19;130655;1257;107581;-77
2023/09/27 03:42:58;;;;;;;18.70;13.80;;;;;;;13.03;85.59;100974.38;130749;1266;106782;-79
2023/09/27 03:46:05;;;;;;;23.10;16.30;;;;;;;13.02;85.60;100971.23;130686;1255;106958;-77
2023/09/27 03:49:12;;;;;;;21.40;15.50;;;;;;;13.00;85.59;100969.87;130733;1254;108521;-78
2023/09/27 03:52:18;;;;;;;20.00;14.70;;;;;;;12.97;85.72;100968.76;130680;1268;105780;-78
2023/09/27 03:55:24;;;;;;;19.80;14.60;;;;;;;12.92;85.43;100968.36;130723;1266;108742;-78
2023/09/27 03:58:29;;;;;;;23.10;15.40;;;;;;;12.89;85.39;100969.58;130718;1268;107148;-78
2023/09/27 04:01:35;;;;;;;20.40;14.60;;;;;;;12.87;85.49;100973.59;130717;1266;107820;-78
2023/09/27 04:04:41;;;;;;;28.30;17.50;;;;;;;12.87;85.51;100974.71;130613;1257;105881;-78
2023/09/27 04:07:47;;;;;;;26.50;16.60;;;;;;;12.88;85.46;100979.39;130709;1254;107668;-78
2023/09/27 04:10:52;;;;;;;24.60;16.90;;;;;;;12.87;85.47;100981.11;130673;1257;108720;-78
2023/09/27 04:13:58;;;;;;;24.50;17.40;;;;;;;12.86;85.66;100978.92;130696;1257;106602;-78
2023/09/27 04:17:04;;;;;;;21.90;15.70;;;;;;;12.84;85.68;100982.48;130663;1266;107640;-78
2023/09/27 04:20:17;;;;;;;18.20;13.30;;;;;;;12.82;85.64;100983.20;130668;1257;107635;-78
2023/09/27 04:23:22;;;;;;;17.20;13.70;;;;;;;12.81;85.72;100981.00;130702;1258;108124;-78
2023/09/27 04:26:31;;;;;;;19.70;14.20;;;;;;;12.82;85.70;100981.31;130703;1264;106496;-78
2023/09/27 04:29:36;;;;;;;19.40;15.30;;;;;;;12.82;85.77;100983.04;130674;1257;106774;-78
2023/09/27 04:32:44;;;;;;;21.60;15.60;;;;;;;12.81;85.67;100986.36;130671;1254;107613;-78
2023/09/27 04:35:50;;;;;;;20.10;15.80;;;;;;;12.80;85.68;100983.64;130715;1254;108406;-78
2023/09/27 04:38:55;;;;;;;18.50;14.30;;;;;;;12.76;85.94;100986.98;130817;1257;106783;-78
2023/09/27 04:42:01;;;;;;;18.30;13.00;;;;;;;12.75;85.92;100990.69;130631;1258;107598;-77
2023/09/27 04:45:09;;;;;;;17.10;12.70;;;;;;;12.77;85.82;100995.85;130704;1256;106416;-78
2023/09/27 04:48:14;;;;;;;17.10;13.30;;;;;;;12.79;85.87;100996.98;130750;1258;107986;-78
2023/09/27 04:51:20;;;;;;;18.60;13.70;;;;;;;12.82;85.90;100993.60;130687;1258;107148;-78
2023/09/27 04:54:26;;;;;;;17.60;13.70;;;;;;;12.85;85.89;100995.65;130717;1258;107002;-78
2023/09/27 04:57:32;;;;;;;19.50;14.70;;;;;;;12.87;85.87;100997.68;130709;1254;108633;-77
2023/09/27 05:00:37;;;;;;;18.00;13.70;;;;;;;12.89;85.82;101000.04;130660;1257;106959;-77
2023/09/27 05:03:43;;;;;;;16.60;12.50;;;;;;;12.90;85.89;101001.94;130844;1257;107648;-78
2023/09/27 05:06:49;;;;;;;20.40;13.30;;;;;;;12.92;85.91;101003.48;130966;1255;107068;-77
2023/09/27 05:09:54;;;;;;;19.30;13.70;;;;;;;12.97;85.75;101008.02;130995;1256;106916;-77
2023/09/27 05:13:00;;;;;;;18.40;13.40;;;;;;;13.03;85.75;101013.35;131116;1257;107888;-77
2023/09/27 05:16:07;;;;;;;17.40;13.20;;;;;;;13.07;85.74;101010.60;131295;1251;107030;-78
2023/09/27 05:19:12;;;;;;;16.80;13.30;;;;;;;13.10;85.76;101010.84;131060;1257;108671;-76
2023/09/27 05:22:19;;;;;;;17.00;12.60;;;;;;;13.12;85.89;101008.00;130993;1264;108462;-77
2023/09/27 05:25:25;;;;;;;15.20;12.30;;;;;;;13.13;86.02;101008.72;130999;1265;107307;-77
2023/09/27 05:28:32;;;;;;;19.20;13.00;;;;;;;13.19;86.10;101008.15;131002;1258;106487;-77
2023/09/27 05:31:38;;;;;;;17.60;13.70;;;;;;;13.27;86.16;101009.33;131066;1257;106856;-76
2023/09/27 05:34:44;;;;;;;17.70;13.90;;;;;;;13.35;86.33;101011.61;131061;1257;107956;-77
2023/09/27 05:37:50;;;;;;;17.50;14.20;;;;;;;13.43;86.63;101006.77;130756;1251;107145;-77
2023/09/27 05:40:55;;;;;;;16.60;13.20;;;;;;;13.50;86.82;101008.34;130957;1258;107854;-76
2023/09/27 05:44:01;;;;;;;19.00;13.30;;;;;;;13.56;86.89;101007.40;130959;1258;107421;-76
2023/09/27 05:47:07;;;;;;;17.40;13.80;;;;;;;13.65;87.19;101011.48;131045;1256;108624;-76
2023/09/27 05:50:13;;;;;;;19.70;15.70;;;;;;;13.76;87.10;101013.98;130981;1256;107976;-76
2023/09/27 05:53:19;;;;;;;19.90;15.80;;;;;;;13.87;87.69;101012.33;130992;1251;107542;-77
2023/09/27 05:56:24;;;;;;;21.80;17.00;;;;;;;13.98;88.15;101012.68;131061;1251;106998;-77
2023/09/27 05:59:30;;;;;;;19.70;15.40;;;;;;;14.09;88.69;101012.54;131082;1257;107529;-77
2023/09/27 06:02:36;;;;;;;19.50;16.10;;;;;;;14.22;88.96;101010.73;131049;1251;108744;-76
2023/09/27 06:05:42;;;;;;;21.90;17.70;;;;;;;14.35;89.14;101013.30;131073;1257;107803;-76
2023/09/27 06:08:48;;;;;;;22.20;18.10;;;;;;;14.47;89.54;101012.05;131022;1257;106824;-76
2023/09/27 06:11:53;;;;;;;21.20;17.10;;;;;;;14.62;89.80;101016.85;131044;1256;108704;-77
2023/09/27 06:14:59;;;;;;;21.10;15.60;;;;;;;14.73;89.95;101015.66;131034;1258;108499;-77
2023/09/27 06:18:05;;;;;;;21.90;17.20;;;;;;;14.83;90.29;101014.93;130763;1251;108338;-76
2023/09/27 06:21:10;;;;;;;22.60;18.20;;;;;;;14.98;90.57;101020.35;130837;1257;108541;-77
2023/09/27 06:24:16;;;;;;;44.50;39.70;;;;;;;15.12;90.92;101018.55;130839;1251;108740;-76
2023/09/27 06:27:21;;;;;;;28.80;23.30;;;;;;;15.24;91.08;101023.68;130855;1257;107824;-77
2023/09/27 06:30:27;;;;;;;23.00;19.40;;;;;;;15.37;91.19;101021.08;130908;1255;106841;-76
2023/09/27 06:33:33;;;;;;;22.00;17.90;;;;;;;15.50;91.37;101025.24;130882;1256;108687;-76
2023/09/27 06:36:38;;;;;;;23.10;18.80;;;;;;;15.62;91.45;101024.67;130861;1256;107910;-77
2023/09/27 06:39:44;;;;;;;21.00;16.50;;;;;;;15.72;91.59;101021.73;130835;1259;108554;-77
2023/09/27 06:42:50;;;;;;;20.20;16.30;;;;;;;15.81;91.80;101028.81;130828;1251;106988;-77
2023/09/27 06:45:56;;;;;;;18.50;15.20;;;;;;;15.92;91.90;101035.55;130860;1265;107423;-77
2023/09/27 06:49:01;;;;;;;19.10;16.30;;;;;;;16.04;92.18;101038.69;130899;1255;106926;-79
2023/09/27 06:52:07;;;;;;;20.40;16.20;;;;;;;16.17;92.19;101039.29;130688;1266;108769;-77
2023/09/27 06:55:16;;;;;;;22.50;16.60;;;;;;;16.29;92.17;101040.94;130643;1266;106803;-77
2023/09/27 06:58:24;;;;;;;19.70;15.90;;;;;;;16.39;92.47;101040.52;130642;1258;107698;-77
2023/09/27 07:01:30;;;;;;;19.70;15.30;;;;;;;16.50;92.51;101042.61;130678;1258;106473;-77
2023/09/27 07:04:36;;;;;;;17.30;14.30;;;;;;;16.60;92.73;101041.07;130948;1258;106665;-77
2023/09/27 07:07:42;;;;;;;17.80;15.00;;;;;;;16.73;92.76;101041.63;131051;1251;106186;-77
2023/09/27 07:10:48;;;;;;;20.80;15.70;;;;;;;16.85;92.85;101042.21;131032;1255;108616;-77
2023/09/27 07:13:55;;;;;;;20.10;16.30;;;;;;;16.99;92.82;101045.94;131003;1256;106863;-77
2023/09/27 07:17:01;;;;;;;20.40;16.10;;;;;;;17.07;92.75;101042.02;130978;1257;108608;-77
2023/09/27 07:20:17;;;;;;;18.90;14.90;;;;;;;17.18;92.71;101045.30;130928;1257;106727;-77
2023/09/27 07:23:23;;;;;;;18.00;13.70;;;;;;;17.29;92.70;101051.58;130958;1257;107567;-77
2023/09/27 07:26:29;;;;;;;21.90;14.50;;;;;;;17.39;92.65;101049.15;131011;1257;108541;-78
2023/09/27 07:29:36;;;;;;;18.70;15.20;;;;;;;17.49;92.69;101050.13;130911;1257;107739;-78
2023/09/27 07:32:43;;;;;;;20.70;15.20;;;;;;;17.60;92.60;101055.02;130935;1263;107894;-78
2023/09/27 07:35:52;;;;;;;18.10;14.70;;;;;;;17.69;92.66;101055.02;130981;1257;108628;-76
2023/09/27 07:38:59;;;;;;;16.80;13.60;;;;;;;17.78;92.57;101059.08;130927;1256;108621;-80
2023/09/27 07:42:06;;;;;;;17.20;15.10;;;;;;;17.86;92.55;101055.73;131047;1257;106936;-81
2023/09/27 07:45:20;;;;;;;19.30;16.20;;;;;;;17.97;92.63;101062.95;131029;1257;106913;-82
2023/09/27 07:48:26;;;;;;;19.30;15.40;;;;;;;18.06;92.32;101062.92;131061;1255;107631;-80
2023/09/27 07:51:31;;;;;;;17.10;14.40;;;;;;;18.13;92.32;101061.20;131034;1256;108492;-81
2023/09/27 07:54:38;;;;;;;17.20;13.70;;;;;;;18.20;92.38;101062.01;131070;1251;107711;-80
2023/09/27 07:57:45;;;;;;;18.40;14.50;;;;;;;18.28;92.21;101061.80;131079;1255;106547;-81
2023/09/27 08:00:51;;;;;;;19.70;14.80;;;;;;;18.36;92.05;101062.21;131085;1256;108316;-81
2023/09/27 08:04:06;;;;;;;19.50;15.50;;;;;;;18.45;91.94;101063.77;131125;1256;107795;-81
2023/09/27 08:07:11;;;;;;;18.40;14.00;;;;;;;18.53;91.87;101064.72;131008;1257;108018;-81
2023/09/27 08:10:18;;;;;;;19.20;14.60;;;;;;;18.60;91.65;101063.36;131096;1251;106643;-82
2023/09/27 08:13:25;;;;;;;17.20;14.80;;;;;;;18.69;91.94;101063.73;131083;1256;107632;-80
2023/09/27 08:16:31;;;;;;;18.20;15.10;;;;;;;18.78;91.88;101065.82;131079;1256;107677;-82
2023/09/27 08:19:38;;;;;;;18.00;15.10;;;;;;;18.89;91.60;101072.68;131076;1251;106767;-82
2023/09/27 08:22:44;;;;;;;18.60;14.90;;;;;;;18.96;91.65;101071.20;131007;1257;108237;-82
2023/09/27 08:25:50;;;;;;;17.90;13.90;;;;;;;19.04;91.49;101068.30;131716;1251;108670;-81
2023/09/27 08:28:56;;;;;;;18.50;14.60;;;;;;;19.10;91.32;101063.18;131083;1257;107683;-80
2023/09/27 08:32:01;;;;;;;21.20;15.10;;;;;;;19.19;91.32;101061.74;131091;1264;108375;-82
2023/09/27 08:35:08;;;;;;;20.40;16.00;;;;;;;19.29;91.08;101062.36;131118;1254;108661;-82
2023/09/27 08:38:14;;;;;;;19.70;15.10;;;;;;;19.37;90.97;101061.70;131291;1257;106678;-81
2023/09/27 08:41:22;;;;;;;17.20;15.20;;;;;;;19.43;90.96;101057.64;131137;1256;108453;-80
2023/09/27 08:44:28;;;;;;;14.80;13.20;;;;;;;19.50;90.90;101057.92;131143;1251;107505;-80
2023/09/27 08:47:34;;;;;;;18.50;14.10;;;;;;;19.58;90.75;101055.60;131117;1254;108626;-80
2023/09/27 08:50:41;;;;;;;18.40;14.80;;;;;;;19.67;90.64;101055.09;131195;1251;107010;-81
2023/09/27 08:53:47;;;;;;;16.40;13.90;;;;;;;19.76;90.94;101054.43;131524;1255;107511;-81
2023/09/27 08:56:53;;;;;;;17.20;13.50;;;;;;;19.88;90.63;101055.28;131305;1254;108907;-81
2023/09/27 08:59:59;;;;;;;20.20;13.00;;;;;;;19.96;90.54;101060.73;131354;1250;107929;-80
2023/09/27 09:03:06;;;;;;;18.30;13.60;;;;;;;20.04;90.41;101059.95;131518;1250;108780;-82
2023/09/27 09:06:12;;;;;;;17.70;13.50;;;;;;;20.14;90.26;101056.45;131003;1251;107722;-82
2023/09/27 09:09:18;;;;;;;17.90;14.00;;;;;;;20.23;90.08;101052.48;131092;1251;107500;-82
2023/09/27 09:12:25;;;;;;;17.10;13.70;;;;;;;20.33;90.14;101054.05;131037;1251;107268;-82
2023/09/27 09:15:40;;;;;;;16.70;13.60;;;;;;;20.42;90.06;101058.24;131021;1253;108626;-84
2023/09/27 09:18:48;;;;;;;16.60;12.10;;;;;;;20.50;89.96;101062.95;131084;1257;107909;-81
2023/09/27 09:22:02;;;;;;;17.20;13.30;;;;;;;20.56;89.84;101060.73;131001;1251;106981;-83
2023/09/27 09:25:09;;;;;;;16.70;13.40;;;;;;;20.66;89.77;101051.20;131055;1254;108002;-81
2023/09/27 09:28:15;;;;;;;17.90;14.10;;;;;;;20.77;89.59;101052.72;131053;1251;107580;-83
2023/09/27 09:31:25;;;;;;;17.80;14.30;;;;;;;20.86;89.23;101056.55;130995;1254;107035;-82
2023/09/27 09:34:40;;;;;;;15.90;13.10;;;;;;;20.90;88.98;101058.88;131102;1250;108400;-81
2023/09/27 09:37:49;;;;;;;16.70;12.40;;;;;;;20.95;88.79;101063.08;131063;1254;107332;-80
2023/09/27 09:40:56;;;;;;;15.40;13.10;;;;;;;21.00;88.78;101065.52;131066;1253;106457;-81
2023/09/27 09:44:19;;;;;;;15.30;13.60;;;;;;;21.07;88.64;101066.11;131131;1256;106675;-82
2023/09/27 09:47:25;;;;;;;19.70;14.00;;;;;;;21.19;88.51;101065.37;131056;1254;107615;-80
2023/09/27 09:50:30;;;;;;;17.00;13.30;;;;;;;21.28;88.36;101057.69;131003;1250;107420;-82
2023/09/27 09:53:40;;;;;;;16.20;13.00;;;;;;;21.34;88.23;101060.46;131122;1254;107390;-81
2023/09/27 09:56:49;;;;;;;13.90;12.00;;;;;;;21.39;88.17;101063.02;131112;1254;107703;-83
2023/09/27 10:00:12;;;;;;;18.70;12.60;;;;;;;21.45;88.03;101061.73;131076;1254;106676;-80
2023/09/27 10:03:21;;;;;;;15.70;12.20;;;;;;;21.51;87.60;101061.23;131070;1250;109285;-81
2023/09/27 10:06:27;;;;;;;18.80;13.30;;;;;;;21.60;87.45;101060.55;131061;1254;106319;-82
2023/09/27 10:09:33;;;;;;;14.70;12.60;;;;;;;21.66;86.91;101058.80;131075;1254;106929;-83
2023/09/27 10:12:39;;;;;;;15.40;11.00;;;;;;;21.67;86.84;101058.38;131026;1254;107582;-82
2023/09/27 10:15:46;;;;;;;14.00;11.40;;;;;;;21.74;86.60;101060.07;131026;1251;107704;-83
2023/09/27 10:18:54;;;;;;;13.10;11.70;;;;;;;21.83;86.45;101053.64;131105;1251;107009;-81
2023/09/27 10:22:08;;;;;;;16.70;12.00;;;;;;;21.91;86.12;101055.77;131165;1254;106557;-81
2023/09/27 10:25:35;;;;;;;15.60;11.20;;;;;;;21.96;85.81;101052.47;131106;1254;107593;-82
2023/09/27 10:29:12;;;;;;;12.60;10.90;;;;;;;22.04;85.38;101050.36;131117;1254;106818;-83
2023/09/27 10:32:21;;;;;;;13.30;11.80;;;;;;;22.08;85.18;101054.02;131094;1255;106726;-84
2023/09/27 10:35:27;;;;;;;13.30;10.50;;;;;;;22.10;84.82;101049.75;131114;1251;108442;-81
2023/09/27 10:39:05;;;;;;;13.50;10.20;;;;;;;22.13;84.63;101049.80;131251;1251;107691;-82
2023/09/27 10:42:10;;;;;;;13.90;10.70;;;;;;;22.20;84.59;101045.07;131189;1251;106500;-81
2023/09/27 10:45:16;;;;;;;13.70;12.00;;;;;;;22.27;84.44;101043.11;131101;1250;107289;-82
2023/09/27 10:48:24;;;;;;;12.60;11.10;;;;;;;22.39;83.89;101039.30;131233;1254;106678;-82
2023/09/27 10:51:30;;;;;;;14.50;10.70;;;;;;;22.45;83.54;101032.50;131203;1254;106529;-82
2023/09/27 10:54:35;;;;;;;12.50;11.20;;;;;;;22.48;83.46;101035.13;131035;1255;107627;-83
2023/09/27 10:57:43;;;;;;;13.90;11.10;;;;;;;22.49;83.25;101034.38;131123;1254;106747;-84
2023/09/27 11:00:56;;;;;;;12.00;8.90;;;;;;;22.50;82.97;101037.19;131052;1257;107652;-81
2023/09/27 11:04:03;;;;;;;14.70;9.60;;;;;;;22.51;82.15;101035.75;131071;1251;107631;-84
2023/09/27 11:07:09;;;;;;;12.20;10.00;;;;;;;22.54;81.67;101025.63;130997;1256;108620;-83
2023/09/27 11:10:32;;;;;;;13.60;10.40;;;;;;;22.64;81.80;101017.77;131032;1256;108144;-82
2023/09/27 11:13:43;;;;;;;11.10;9.60;;;;;;;22.73;81.53;101008.86;131136;1256;107738;-82
2023/09/27 11:16:49;;;;;;;13.30;9.60;;;;;;;22.79;81.51;101005.86;131009;1255;108294;-84
2023/09/27 11:19:55;;;;;;;12.90;10.00;;;;;;;22.82;80.83;101005.61;130981;1254;106841;-83
2023/09/27 11:23:01;;;;;;;12.00;9.50;;;;;;;22.84;80.38;101000.69;131044;1255;108630;-82
2023/09/27 11:26:07;;;;;;;10.80;9.50;;;;;;;22.86;80.25;100999.93;131009;1256;106689;-82
2023/09/27 11:29:12;;;;;;;11.50;8.80;;;;;;;22.91;80.05;100997.52;131021;1251;106703;-84
2023/09/27 11:32:18;;;;;;;11.00;8.20;;;;;;;23.00;80.14;100998.81;130978;1255;106821;-84
2023/09/27 11:35:24;;;;;;;10.60;8.70;;;;;;;23.03;79.08;100995.64;130992;1251;107256;-83
2023/09/27 11:38:29;;;;;;;10.70;8.70;;;;;;;23.10;78.67;100998.39;131125;1251;107502;-83
2023/09/27 11:41:35;;;;;;;11.20;8.10;;;;;;;23.13;78.39;100988.81;130953;1256;107747;-83
2023/09/27 11:44:41;;;;;;;12.30;8.50;;;;;;;23.17;77.84;100991.05;131117;1255;108130;-83
2023/09/27 11:47:51;;;;;;;11.30;8.30;;;;;;;23.19;77.35;100989.08;131028;1256;106851;-81
2023/09/27 11:50:59;;;;;;;13.00;8.00;;;;;;;23.22;76.95;100988.46;131009;1256;106620;-81
2023/09/27 11:54:05;;;;;;;9.60;8.00;;;;;;;23.23;76.05;100982.00;131110;1255;106912;-82
2023/09/27 11:57:11;;;;;;;9.90;8.00;;;;;;;23.27;76.40;100976.92;130967;1252;107926;-82
2023/09/27 12:00:17;;;;;;;11.60;7.80;;;;;;;23.30;75.74;100972.27;131035;1256;106685;-83
2023/09/27 12:03:26;;;;;;;10.70;7.20;;;;;;;23.31;75.38;100967.09;130976;1255;107673;-82
2023/09/27 12:06:32;;;;;;;9.60;7.30;;;;;;;23.36;74.55;100964.87;130913;1255;107612;-82
2023/09/27 12:09:37;;;;;;;8.70;7.80;;;;;;;23.39;74.31;100968.83;130841;1257;108791;-80
2023/09/27 12:12:43;;;;;;;12.10;8.10;;;;;;;23.42;74.11;100963.44;130782;1256;107568;-80
2023/09/27 12:15:49;;;;;;;12.90;7.50;;;;;;;23.46;73.79;100954.33;130786;1254;108388;-82
2023/09/27 12:18:54;;;;;;;8.30;6.70;;;;;;;23.47;72.70;100946.73;130803;1257;107944;-81
2023/09/27 12:22:00;;;;;;;9.60;6.60;;;;;;;23.47;72.52;100940.90;130780;1256;107669;-83
2023/09/27 12:25:07;;;;;;;10.40;6.70;;;;;;;23.48;72.28;100934.41;130850;1257;107957;-81
2023/09/27 12:28:14;;;;;;;8.40;6.80;;;;;;;23.52;71.93;100932.08;130850;1257;106564;-80
2023/09/27 12:31:20;;;;;;;8.80;6.80;;;;;;;23.55;71.51;100932.58;130807;1254;106635;-82
2023/09/27 12:34:28;;;;;;;10.20;7.30;;;;;;;23.58;71.25;100935.09;130828;1252;108010;-83
2023/09/27 12:37:35;;;;;;;10.00;7.10;;;;;;;23.60;70.98;100933.88;130863;1256;108770;-81
2023/09/27 12:40:41;;;;;;;10.20;6.60;;;;;;;23.60;70.53;100929.58;130957;1255;107711;-82
2023/09/27 12:43:47;;;;;;;7.10;6.40;;;;;;;23.60;70.48;100929.48;131161;1255;106486;-82
2023/09/27 12:46:52;;;;;;;9.10;6.90;;;;;;;23.63;70.31;100924.34;130958;1255;106724;-82
2023/09/27 12:50:02;;;;;;;9.10;6.50;;;;;;;23.65;70.15;100924.08;130869;1255;107666;-80
2023/09/27 12:53:08;;;;;;;9.30;7.00;;;;;;;23.67;69.72;100922.59;130835;1257;106742;-82
2023/09/27 12:56:13;;;;;;;10.60;6.40;;;;;;;23.67;69.09;100916.64;130797;1252;107738;-81
2023/09/27 12:59:19;;;;;;;8.10;6.20;;;;;;;23.70;68.62;100917.87;130838;1257;107733;-82
2023/09/27 13:02:25;;;;;;;10.50;6.30;;;;;;;23.71;68.61;100917.30;130882;1259;107636;-82
2023/09/27 13:05:30;;;;;;;7.60;6.50;;;;;;;23.74;68.63;100913.14;131035;1252;106723;-81
2023/09/27 13:08:36;;;;;;;10.10;7.00;;;;;;;23.76;68.46;100909.43;131002;1256;107355;-81
2023/09/27 13:11:42;;;;;;;10.80;7.30;;;;;;;23.76;68.43;100905.15;131046;1256;106730;-82
2023/09/27 13:14:47;;;;;;;13.20;6.80;;;;;;;23.79;68.42;100907.11;131006;1257;106567;-81
2023/09/27 13:17:53;;;;;;;9.40;7.30;;;;;;;23.80;67.88;100906.11;131191;1255;107425;-81
2023/09/27 13:20:59;;;;;;;10.00;6.70;;;;;;;23.80;67.83;100901.75;131003;1251;107702;-82
2023/09/27 13:24:05;;;;;;;10.30;7.30;;;;;;;23.81;67.58;100898.27;131207;1256;108088;-81
2023/09/27 13:27:11;;;;;;;10.50;7.10;;;;;;;23.82;67.17;100892.46;131055;1254;108482;-81
2023/09/27 13:30:17;;;;;;;8.60;6.60;;;;;;;23.84;67.27;100896.05;130822;1257;107655;-83
2023/09/27 13:33:23;;;;;;;9.90;7.30;;;;;;;23.84;67.18;100891.98;130942;1256;107678;-82
2023/09/27 13:36:29;;;;;;;13.20;7.80;;;;;;;23.85;67.00;100889.66;131006;1256;107723;-81
2023/09/27 13:39:35;;;;;;;9.60;6.40;;;;;;;23.87;66.61;100887.63;130980;1256;107957;-82
2023/09/27 13:42:41;;;;;;;8.00;6.20;;;;;;;23.88;66.09;100886.58;131017;1256;107618;-82
2023/09/27 13:45:47;;;;;;;10.30;6.90;;;;;;;23.87;65.98;100893.50;130923;1257;105617;-79
2023/09/27 13:48:52;;;;;;;8.10;6.00;;;;;;;23.86;65.82;100898.37;131013;1255;106693;-81
2023/09/27 13:51:58;;;;;;;7.80;6.40;;;;;;;23.84;65.26;100893.54;130986;1256;245099;-80
2023/09/27 13:55:04;;;;;;;9.60;6.50;;;;;;;23.82;65.00;100892.84;131132;1253;107388;-80